SVA167 OEJN-EDDF
Flight info
| Callsign | SVA167 |
|---|---|
| Flight time | N/A |
| Altitude | 36000 |
| Route | BOMOX M686 OTEMO T55 TANSA DCT EVIVI DCT OKANA/N0477F380 DCT NANER DCT SIVLA DCT MUREG DCT GRZ DCT SIMBA DCT AKINI T161 DEBHI DEBHI1B |
| Aircraft | B77W/H-SDE1E2E3FGHIJ2J3J4J5M1RWXYZ/LB1D1 |
Departure
| Time | N/A |
|---|---|
| Airport | King Abdulaziz International Airport (OEJN) |
Arrival
| Time | 2026-05-05 16:13 |
|---|---|
| Airport | Frankfurt Main Airport (EDDF) |
| Time | Latitude | Longitude | Altitude | Speed | Heading |
|---|---|---|---|---|---|
| 2026-05-05 15:08 | 45.88470 | 17.15700 | 37972 ft | 461 kts | 311° |
| 2026-05-05 15:09 | 45.92742 | 17.08852 | 37961 ft | 460 kts | 310° |
| 2026-05-05 15:09 | 45.97009 | 17.01997 | 37961 ft | 460 kts | 310° |
| 2026-05-05 15:10 | 46.01270 | 16.95134 | 37968 ft | 459 kts | 310° |
| 2026-05-05 15:10 | 46.05521 | 16.88270 | 37969 ft | 459 kts | 310° |
| 2026-05-05 15:11 | 46.09764 | 16.81397 | 37962 ft | 459 kts | 310° |
| 2026-05-05 15:11 | 46.14014 | 16.74499 | 37969 ft | 460 kts | 310° |
| 2026-05-05 15:12 | 46.18260 | 16.67596 | 37957 ft | 460 kts | 310° |
| 2026-05-05 15:12 | 46.22509 | 16.60666 | 37961 ft | 461 kts | 310° |
| 2026-05-05 15:13 | 46.26760 | 16.53714 | 37955 ft | 462 kts | 310° |
| 2026-05-05 15:13 | 46.31017 | 16.46733 | 37955 ft | 462 kts | 310° |
| 2026-05-05 15:14 | 46.35271 | 16.39741 | 37956 ft | 463 kts | 310° |
| 2026-05-05 15:14 | 46.39525 | 16.32731 | 37953 ft | 463 kts | 310° |
| 2026-05-05 15:15 | 46.43769 | 16.25722 | 37948 ft | 462 kts | 310° |
| 2026-05-05 15:15 | 46.47981 | 16.18746 | 37963 ft | 462 kts | 310° |
| 2026-05-05 15:16 | 46.52212 | 16.11719 | 37940 ft | 462 kts | 310° |
| 2026-05-05 15:16 | 46.56440 | 16.04678 | 37935 ft | 462 kts | 310° |
| 2026-05-05 15:17 | 46.60654 | 15.97645 | 37931 ft | 461 kts | 310° |
| 2026-05-05 15:17 | 46.64862 | 15.90601 | 37934 ft | 461 kts | 310° |
| 2026-05-05 15:18 | 46.69067 | 15.83553 | 37935 ft | 461 kts | 310° |
| 2026-05-05 15:18 | 46.73444 | 15.76719 | 37929 ft | 462 kts | 314° |
| 2026-05-05 15:19 | 46.78032 | 15.70172 | 37923 ft | 462 kts | 314° |
| 2026-05-05 15:19 | 46.82626 | 15.63600 | 37914 ft | 462 kts | 314° |
| 2026-05-05 15:20 | 46.87204 | 15.56973 | 37900 ft | 463 kts | 314° |
| 2026-05-05 15:20 | 46.91774 | 15.50329 | 37894 ft | 463 kts | 314° |
| 2026-05-05 15:21 | 46.96269 | 15.43593 | 37886 ft | 463 kts | 309° |
| 2026-05-05 15:21 | 47.00301 | 15.36292 | 37894 ft | 462 kts | 307° |
| 2026-05-05 15:22 | 47.04279 | 15.28895 | 37886 ft | 462 kts | 307° |
| 2026-05-05 15:22 | 47.08262 | 15.21509 | 37890 ft | 460 kts | 307° |
| 2026-05-05 15:23 | 47.12209 | 15.14222 | 37884 ft | 453 kts | 307° |
| 2026-05-05 15:23 | 47.16123 | 15.06991 | 37894 ft | 451 kts | 307° |
| 2026-05-05 15:24 | 47.20024 | 14.99763 | 37891 ft | 451 kts | 307° |
| 2026-05-05 15:24 | 47.23921 | 14.92519 | 37885 ft | 451 kts | 307° |
| 2026-05-05 15:25 | 47.27817 | 14.85257 | 37883 ft | 452 kts | 307° |
| 2026-05-05 15:25 | 47.31717 | 14.77968 | 37880 ft | 453 kts | 307° |
| 2026-05-05 15:26 | 47.35620 | 14.70656 | 37867 ft | 454 kts | 307° |
| 2026-05-05 15:26 | 47.39518 | 14.63333 | 37885 ft | 454 kts | 307° |
| 2026-05-05 15:27 | 47.43416 | 14.55992 | 37883 ft | 454 kts | 307° |
| 2026-05-05 15:27 | 47.47312 | 14.48634 | 37885 ft | 455 kts | 307° |
| 2026-05-05 15:28 | 47.51188 | 14.41297 | 37881 ft | 455 kts | 307° |
| 2026-05-05 15:28 | 47.55112 | 14.33846 | 37861 ft | 456 kts | 307° |
| 2026-05-05 15:29 | 47.58982 | 14.26478 | 37850 ft | 456 kts | 307° |
| 2026-05-05 15:29 | 47.62877 | 14.19043 | 37834 ft | 457 kts | 307° |
| 2026-05-05 15:30 | 47.66765 | 14.11598 | 37811 ft | 456 kts | 306° |
| 2026-05-05 15:30 | 47.70652 | 14.04139 | 37790 ft | 456 kts | 306° |
| 2026-05-05 15:31 | 47.74527 | 13.96679 | 37782 ft | 455 kts | 306° |
| 2026-05-05 15:31 | 47.78392 | 13.89220 | 37763 ft | 455 kts | 306° |
| 2026-05-05 15:32 | 47.82247 | 13.81759 | 37770 ft | 454 kts | 306° |
| 2026-05-05 15:32 | 47.86091 | 13.74297 | 37754 ft | 454 kts | 306° |
| 2026-05-05 15:33 | 47.89932 | 13.66819 | 37750 ft | 454 kts | 306° |
| 2026-05-05 15:33 | 47.93765 | 13.59342 | 37748 ft | 453 kts | 306° |
| 2026-05-05 15:34 | 47.97586 | 13.51868 | 37750 ft | 453 kts | 306° |
| 2026-05-05 15:34 | 48.01405 | 13.44372 | 37752 ft | 454 kts | 306° |
| 2026-05-05 15:35 | 48.05122 | 13.37058 | 37751 ft | 455 kts | 306° |
| 2026-05-05 15:35 | 48.08971 | 13.29462 | 37752 ft | 456 kts | 306° |
| 2026-05-05 15:36 | 48.12672 | 13.22143 | 37749 ft | 456 kts | 306° |
| 2026-05-05 15:36 | 48.16466 | 13.14618 | 37752 ft | 456 kts | 306° |
| 2026-05-05 15:37 | 48.20274 | 13.07037 | 37760 ft | 456 kts | 305° |
| 2026-05-05 15:37 | 48.24166 | 12.99525 | 37750 ft | 457 kts | 309° |
| 2026-05-05 15:38 | 48.28382 | 12.92386 | 37766 ft | 457 kts | 310° |
| 2026-05-05 15:38 | 48.32627 | 12.85282 | 37764 ft | 456 kts | 310° |
| 2026-05-05 15:39 | 48.36827 | 12.78183 | 37778 ft | 456 kts | 310° |
| 2026-05-05 15:39 | 48.41028 | 12.71027 | 37777 ft | 457 kts | 310° |
| 2026-05-05 15:40 | 48.44440 | 12.65195 | 37779 ft | 457 kts | 309° |
| 2026-05-05 15:40 | 48.48346 | 12.58500 | 37775 ft | 457 kts | 309° |
| 2026-05-05 15:41 | 48.52574 | 12.51242 | 37777 ft | 457 kts | 309° |
| 2026-05-05 15:41 | 48.56721 | 12.44104 | 37781 ft | 457 kts | 309° |
| 2026-05-05 15:42 | 48.60837 | 12.37001 | 37786 ft | 457 kts | 309° |
| 2026-05-05 15:42 | 48.64986 | 12.29821 | 37787 ft | 457 kts | 309° |
| 2026-05-05 15:43 | 48.69169 | 12.22560 | 37787 ft | 457 kts | 309° |
| 2026-05-05 15:43 | 48.73202 | 12.15134 | 37779 ft | 455 kts | 300° |
| 2026-05-05 15:44 | 48.75701 | 12.06414 | 37795 ft | 451 kts | 282° |
| 2026-05-05 15:44 | 48.76742 | 11.97072 | 37793 ft | 449 kts | 277° |
| 2026-05-05 15:45 | 48.77660 | 11.87689 | 37791 ft | 451 kts | 277° |
| 2026-05-05 15:45 | 48.78635 | 11.78282 | 37790 ft | 452 kts | 277° |
| 2026-05-05 15:46 | 48.79632 | 11.68859 | 37799 ft | 453 kts | 277° |
| 2026-05-05 15:46 | 48.80613 | 11.59463 | 37564 ft | 449 kts | 277° |
| 2026-05-05 15:46 | 48.81101 | 11.54796 | 37145 ft | 446 kts | 277° |
| 2026-05-05 15:47 | 48.81586 | 11.50176 | 36718 ft | 441 kts | 277° |
| 2026-05-05 15:47 | 48.82063 | 11.45600 | 36277 ft | 437 kts | 277° |
| 2026-05-05 15:47 | 48.82533 | 11.41073 | 35840 ft | 433 kts | 277° |
| 2026-05-05 15:47 | 48.82998 | 11.36582 | 35395 ft | 429 kts | 277° |
| 2026-05-05 15:48 | 48.83458 | 11.32115 | 34943 ft | 426 kts | 277° |
| 2026-05-05 15:48 | 48.83927 | 11.27679 | 34491 ft | 422 kts | 280° |
| 2026-05-05 15:48 | 48.84831 | 11.23457 | 34033 ft | 422 kts | 294° |
| 2026-05-05 15:48 | 48.86321 | 11.19647 | 33642 ft | 420 kts | 305° |
| 2026-05-05 15:49 | 48.88288 | 11.16358 | 33226 ft | 419 kts | 316° |
| 2026-05-05 15:49 | 48.90462 | 11.13459 | 32841 ft | 415 kts | 317° |
| 2026-05-05 15:49 | 48.92631 | 11.10572 | 32427 ft | 412 kts | 316° |
| 2026-05-05 15:49 | 48.94754 | 11.07666 | 32027 ft | 408 kts | 316° |
| 2026-05-05 15:50 | 48.96845 | 11.04757 | 31627 ft | 405 kts | 315° |
| 2026-05-05 15:50 | 48.98906 | 11.01858 | 31242 ft | 402 kts | 315° |
| 2026-05-05 15:50 | 49.00950 | 10.98971 | 30855 ft | 399 kts | 315° |
| 2026-05-05 15:50 | 49.02978 | 10.96102 | 30476 ft | 396 kts | 315° |
| 2026-05-05 15:51 | 49.04985 | 10.93267 | 30099 ft | 393 kts | 315° |
| 2026-05-05 15:51 | 49.06982 | 10.90444 | 29724 ft | 390 kts | 315° |
| 2026-05-05 15:51 | 49.08963 | 10.87644 | 29348 ft | 387 kts | 315° |
| 2026-05-05 15:51 | 49.10929 | 10.84870 | 28978 ft | 384 kts | 315° |
| 2026-05-05 15:52 | 49.12888 | 10.82105 | 28581 ft | 382 kts | 315° |
| 2026-05-05 15:52 | 49.14830 | 10.79361 | 28205 ft | 379 kts | 315° |
| 2026-05-05 15:52 | 49.16756 | 10.76637 | 27830 ft | 377 kts | 315° |
| 2026-05-05 15:52 | 49.18649 | 10.73954 | 27449 ft | 374 kts | 315° |
| 2026-05-05 15:53 | 49.20564 | 10.71200 | 27081 ft | 373 kts | 313° |
| 2026-05-05 15:53 | 49.22367 | 10.68406 | 26722 ft | 375 kts | 312° |
| 2026-05-05 15:53 | 49.24194 | 10.65487 | 26360 ft | 384 kts | 312° |
| 2026-05-05 15:53 | 49.26053 | 10.62512 | 25972 ft | 389 kts | 312° |
| 2026-05-05 15:54 | 49.27929 | 10.59526 | 25570 ft | 388 kts | 312° |
| 2026-05-05 15:54 | 49.29800 | 10.56561 | 25162 ft | 386 kts | 312° |
| 2026-05-05 15:54 | 49.31664 | 10.53618 | 24777 ft | 383 kts | 312° |
| 2026-05-05 15:54 | 49.33512 | 10.50701 | 24373 ft | 380 kts | 312° |
| 2026-05-05 15:55 | 49.35347 | 10.47798 | 23983 ft | 378 kts | 312° |
| 2026-05-05 15:55 | 49.37087 | 10.44826 | 23582 ft | 374 kts | 306° |
| 2026-05-05 15:55 | 49.38608 | 10.41616 | 23212 ft | 370 kts | 302° |
| 2026-05-05 15:55 | 49.40040 | 10.38347 | 22835 ft | 368 kts | 301° |
| 2026-05-05 15:56 | 49.41432 | 10.35142 | 22457 ft | 365 kts | 302° |
| 2026-05-05 15:56 | 49.42851 | 10.31917 | 22083 ft | 363 kts | 302° |
| 2026-05-05 15:56 | 49.44274 | 10.28726 | 21715 ft | 361 kts | 302° |
| 2026-05-05 15:56 | 49.45699 | 10.25564 | 21338 ft | 359 kts | 303° |
| 2026-05-05 15:57 | 49.47116 | 10.22434 | 20971 ft | 356 kts | 303° |
| 2026-05-05 15:57 | 49.48526 | 10.19320 | 20566 ft | 354 kts | 303° |
| 2026-05-05 15:57 | 49.49957 | 10.16156 | 19648 ft | 369 kts | 303° |
| 2026-05-05 15:57 | 49.51467 | 10.12816 | 19185 ft | 389 kts | 303° |
| 2026-05-05 15:58 | 49.53038 | 10.09336 | 19022 ft | 400 kts | 303° |
| 2026-05-05 15:58 | 49.54634 | 10.05806 | 18801 ft | 402 kts | 303° |
| 2026-05-05 15:58 | 49.56230 | 10.02272 | 18324 ft | 400 kts | 303° |
| 2026-05-05 15:58 | 49.57809 | 9.98767 | 17961 ft | 395 kts | 303° |
| 2026-05-05 15:59 | 49.59385 | 9.95259 | 17836 ft | 400 kts | 303° |
| 2026-05-05 15:59 | 49.60976 | 9.91716 | 17336 ft | 402 kts | 303° |
| 2026-05-05 15:59 | 49.62563 | 9.88179 | 16801 ft | 400 kts | 303° |
| 2026-05-05 15:59 | 49.64133 | 9.84673 | 16420 ft | 393 kts | 303° |
| 2026-05-05 16:00 | 49.65668 | 9.81240 | 16077 ft | 385 kts | 303° |
| 2026-05-05 16:00 | 49.67181 | 9.77858 | 15650 ft | 380 kts | 303° |
| 2026-05-05 16:00 | 49.68676 | 9.74505 | 15153 ft | 378 kts | 303° |
| 2026-05-05 16:00 | 49.70163 | 9.71166 | 14644 ft | 376 kts | 303° |
| 2026-05-05 16:01 | 49.71641 | 9.67845 | 14141 ft | 374 kts | 303° |
| 2026-05-05 16:01 | 49.73109 | 9.64546 | 13890 ft | 376 kts | 303° |
| 2026-05-05 16:01 | 49.74701 | 9.61324 | 13841 ft | 377 kts | 308° |
| 2026-05-05 16:01 | 49.76405 | 9.58257 | 13834 ft | 375 kts | 310° |
| 2026-05-05 16:02 | 49.78139 | 9.55242 | 13563 ft | 376 kts | 310° |
| 2026-05-05 16:02 | 49.79865 | 9.52247 | 13066 ft | 378 kts | 310° |
| 2026-05-05 16:02 | 49.81625 | 9.49172 | 12564 ft | 375 kts | 310° |
| 2026-05-05 16:02 | 49.83315 | 9.46192 | 12073 ft | 372 kts | 310° |
| 2026-05-05 16:03 | 49.85006 | 9.43187 | 11578 ft | 369 kts | 309° |
| 2026-05-05 16:03 | 49.86686 | 9.40185 | 11077 ft | 367 kts | 309° |
| 2026-05-05 16:03 | 49.88347 | 9.37210 | 10567 ft | 364 kts | 310° |
| 2026-05-05 16:03 | 49.89998 | 9.34249 | 10087 ft | 361 kts | 310° |
| 2026-05-05 16:04 | 49.91631 | 9.31311 | 9576 ft | 359 kts | 310° |
| 2026-05-05 16:04 | 49.93252 | 9.28393 | 9081 ft | 356 kts | 310° |
| 2026-05-05 16:04 | 49.94859 | 9.25494 | 8587 ft | 353 kts | 310° |
| 2026-05-05 16:04 | 49.96457 | 9.22607 | 8089 ft | 351 kts | 310° |
| 2026-05-05 16:05 | 49.98022 | 9.19778 | 7568 ft | 335 kts | 310° |
| 2026-05-05 16:05 | 49.99491 | 9.17129 | 7058 ft | 312 kts | 310° |
| 2026-05-05 16:05 | 50.00864 | 9.14647 | 6542 ft | 294 kts | 310° |
| 2026-05-05 16:05 | 50.02161 | 9.12297 | 6007 ft | 280 kts | 310° |
| 2026-05-05 16:06 | 50.03397 | 9.10048 | 5502 ft | 267 kts | 310° |
| 2026-05-05 16:06 | 50.04585 | 9.07890 | 4983 ft | 259 kts | 310° |
| 2026-05-05 16:06 | 50.05743 | 9.05788 | 4482 ft | 252 kts | 310° |
| 2026-05-05 16:06 | 50.06847 | 9.03784 | 4437 ft | 242 kts | 310° |
| 2026-05-05 16:07 | 50.07941 | 9.01793 | 4449 ft | 241 kts | 310° |
| 2026-05-05 16:07 | 50.09022 | 8.99823 | 4440 ft | 238 kts | 310° |
| 2026-05-05 16:07 | 50.10090 | 8.97879 | 4426 ft | 234 kts | 310° |
| 2026-05-05 16:07 | 50.11139 | 8.95954 | 4411 ft | 231 kts | 307° |
| 2026-05-05 16:08 | 50.11782 | 8.93694 | 4390 ft | 232 kts | 275° |
| 2026-05-05 16:08 | 50.11593 | 8.91228 | 4413 ft | 229 kts | 256° |
| 2026-05-05 16:08 | 50.11152 | 8.88799 | 4306 ft | 238 kts | 252° |
| 2026-05-05 16:08 | 50.10605 | 8.86345 | 4024 ft | 241 kts | 250° |
| 2026-05-05 16:09 | 50.10030 | 8.83932 | 3693 ft | 230 kts | 250° |
| 2026-05-05 16:09 | 50.09488 | 8.81679 | 3401 ft | 214 kts | 250° |
| 2026-05-05 16:09 | 50.08982 | 8.79560 | 3185 ft | 206 kts | 250° |
| 2026-05-05 16:09 | 50.08488 | 8.77477 | 2888 ft | 205 kts | 250° |
| 2026-05-05 16:10 | 50.08002 | 8.75434 | 2621 ft | 194 kts | 250° |
| 2026-05-05 16:10 | 50.07548 | 8.73528 | 2359 ft | 186 kts | 249° |
| 2026-05-05 16:10 | 50.07097 | 8.71636 | 2122 ft | 186 kts | 250° |
| 2026-05-05 16:10 | 50.06653 | 8.69768 | 1869 ft | 183 kts | 250° |
| 2026-05-05 16:11 | 50.06229 | 8.67983 | 1640 ft | 168 kts | 249° |
| 2026-05-05 16:11 | 50.05144 | 8.63433 | 1048 ft | 145 kts | 249° |
| 2026-05-05 16:12 | 50.04797 | 8.61972 | 840 ft | 143 kts | 249° |
| 2026-05-05 16:12 | 50.04106 | 8.59073 | 478 ft | 145 kts | 249° |
| 2026-05-05 16:13 | 50.03341 | 8.55867 | 352 ft | 37 kts | 249° |
| 2026-05-05 16:13 | 50.03223 | 8.55569 | 355 ft | 24 kts | 225° |
| 2026-05-05 16:13 | 50.03143 | 8.55462 | 357 ft | 9 kts | 217° |
| 2026-05-05 16:14 | 50.03116 | 8.55436 | 357 ft | 6 kts | 221° |
| 2026-05-05 16:14 | 50.03014 | 8.55286 | 357 ft | 10 kts | 219° |
| 2026-05-05 16:15 | 50.02942 | 8.55386 | 357 ft | 11 kts | 75° |
| 2026-05-05 16:15 | 50.02992 | 8.55601 | 357 ft | 12 kts | 70° |
| 2026-05-05 16:16 | 50.03049 | 8.55839 | 352 ft | 12 kts | 69° |
| 2026-05-05 16:16 | 50.03105 | 8.56072 | 358 ft | 11 kts | 70° |
| 2026-05-05 16:17 | 50.03153 | 8.56273 | 355 ft | 8 kts | 70° |
| 2026-05-05 16:17 | 50.03172 | 8.56352 | 360 ft | 7 kts | 70° |
| 2026-05-05 16:18 | 50.03204 | 8.56488 | 361 ft | 6 kts | 70° |
| 2026-05-05 16:18 | 50.03219 | 8.56551 | 361 ft | 6 kts | 70° |
| 2026-05-05 16:18 | 50.03246 | 8.56667 | 361 ft | 3 kts | 70° |
| 2026-05-05 16:19 | 50.03253 | 8.56695 | 353 ft | 3 kts | 70° |
| 2026-05-05 16:19 | 50.03260 | 8.56726 | 354 ft | 4 kts | 70° |
| 2026-05-05 16:19 | 50.03216 | 8.56863 | 365 ft | 9 kts | 154° |
| 2026-05-05 16:20 | 50.03121 | 8.56919 | 358 ft | 9 kts | 159° |
| 2026-05-05 16:20 | 50.03038 | 8.57055 | 365 ft | 10 kts | 116° |
| 2026-05-05 16:21 | 50.02993 | 8.57263 | 366 ft | 7 kts | 65° |
| 2026-05-05 16:22 | 50.03061 | 8.57330 | 367 ft | 0 kts | 25° |